Time;durP1;ratioP1;P1;durP2;ratioP2;P2;SDS_P1;SDS_P2;PMS_P1;PMS_P2;Temp;Humidity;BMP_temperature;BMP_pressure;BME280_temperature;BME280_humidity;BME280_pressure;Samples;Min_cycle;Max_cycle;Signal;HPM_P1;HPM_P2
2021/04/29 00:00:48;;;;;;;13.45;7.10;;;11.20;57.20;;;;;;5088997;28;20037;-67
2021/04/29 00:03:13;;;;;;;12.15;7.10;;;11.10;57.10;;;;;;5088916;28;20028;-67
2021/04/29 00:05:39;;;;;;;11.63;6.90;;;11.10;57.20;;;;;;5055157;28;20024;-67
2021/04/29 00:08:05;;;;;;;17.17;7.30;;;11.10;57.40;;;;;;5072853;28;20552;-70
2021/04/29 00:10:32;;;;;;;12.80;7.07;;;11.10;57.60;;;;;;5070940;28;20030;-69
2021/04/29 00:12:58;;;;;;;13.73;7.28;;;11.10;57.80;;;;;;5089541;28;20036;-67
2021/04/29 00:15:25;;;;;;;13.00;6.95;;;11.10;57.80;;;;;;5072195;28;20024;-67
2021/04/29 00:17:51;;;;;;;12.93;6.72;;;11.10;57.80;;;;;;5071062;28;20055;-67
2021/04/29 00:20:21;;;;;;;12.20;6.85;;;11.10;57.80;;;;;;5071790;28;20496;-68
2021/04/29 00:22:47;;;;;;;11.48;6.95;;;11.00;57.80;;;;;;5076140;28;20035;-66
2021/04/29 00:25:14;;;;;;;13.30;7.60;;;11.00;58.00;;;;;;5091642;28;20176;-66
2021/04/29 00:27:39;;;;;;;10.85;6.60;;;11.00;58.10;;;;;;5092804;28;20019;-68
2021/04/29 00:30:07;;;;;;;12.48;7.47;;;11.00;58.10;;;;;;5092362;28;20069;-68
2021/04/29 00:32:34;;;;;;;12.32;7.07;;;11.00;58.10;;;;;;5110616;28;20039;-66
2021/04/29 00:35:00;;;;;;;14.52;7.57;;;11.00;58.20;;;;;;5110543;28;20411;-68
2021/04/29 00:37:26;;;;;;;12.98;7.32;;;11.00;58.30;;;;;;5109093;28;20048;-68
2021/04/29 00:39:52;;;;;;;12.65;7.47;;;11.10;58.50;;;;;;5101401;28;20036;-66
2021/04/29 00:42:19;;;;;;;12.82;7.47;;;11.10;58.70;;;;;;5083575;28;20052;-69
2021/04/29 00:44:44;;;;;;;13.57;7.72;;;11.00;58.70;;;;;;5098554;28;20040;-66
2021/04/29 00:47:10;;;;;;;12.00;7.38;;;11.00;58.90;;;;;;5082502;28;20039;-66
2021/04/29 00:49:36;;;;;;;12.98;8.25;;;11.00;59.20;;;;;;5066014;28;20152;-67
2021/04/29 00:52:02;;;;;;;11.60;8.13;;;10.90;59.40;;;;;;5085360;28;20032;-67
2021/04/29 00:54:28;;;;;;;12.50;7.60;;;10.90;59.80;;;;;;5080820;28;20478;-67
2021/04/29 00:56:53;;;;;;;12.88;8.30;;;10.90;60.20;;;;;;5084120;28;20039;-69
2021/04/29 00:59:20;;;;;;;15.48;8.15;;;10.80;60.30;;;;;;5087247;28;20506;-67
2021/04/29 01:01:47;;;;;;;15.65;8.80;;;10.80;60.40;;;;;;5064886;28;20027;-69
2021/04/29 01:04:26;;;;;;;15.68;8.55;;;10.80;60.60;;;;;;5109729;28;20486;-67
2021/04/29 01:07:04;;;;;;;10.97;7.60;;;10.70;60.90;;;;;;5113432;28;20062;-68
2021/04/29 01:09:47;;;;;;;12.57;7.95;;;10.70;61.20;;;;;;5114005;28;20040;-67
2021/04/29 01:12:21;;;;;;;16.27;8.82;;;10.70;61.60;;;;;;5095570;28;20043;-67
2021/04/29 01:14:50;;;;;;;15.43;8.48;;;10.60;61.80;;;;;;5113915;28;20560;-68
2021/04/29 01:17:17;;;;;;;13.43;8.67;;;10.60;62.30;;;;;;5113300;28;20035;-68
2021/04/29 01:19:45;;;;;;;14.20;8.93;;;10.60;62.70;;;;;;5114043;28;20114;-69
2021/04/29 01:22:12;;;;;;;14.97;9.33;;;10.60;63.20;;;;;;5095396;28;20082;-67
2021/04/29 01:24:55;;;;;;;12.80;8.53;;;10.50;63.30;;;;;;5094905;28;20600;-68
2021/04/29 01:27:22;;;;;;;14.93;9.25;;;10.50;63.80;;;;;;5078094;28;20040;-69
2021/04/29 01:29:48;;;;;;;14.43;9.17;;;10.40;64.10;;;;;;5095318;28;20094;-67
2021/04/29 01:32:15;;;;;;;17.47;10.50;;;10.50;64.60;;;;;;5113102;28;20047;-68
2021/04/29 01:34:42;;;;;;;18.58;9.65;;;10.50;65.10;;;;;;5112106;28;20092;-68
2021/04/29 01:37:09;;;;;;;18.00;10.83;;;10.40;65.50;;;;;;5095247;28;20043;-67
2021/04/29 01:39:35;;;;;;;17.23;10.25;;;10.40;65.90;;;;;;5095458;28;20046;-67
2021/04/29 01:42:01;;;;;;;16.97;11.10;;;10.40;66.30;;;;;;5113172;28;20039;-67
2021/04/29 01:44:28;;;;;;;15.80;10.73;;;10.30;66.90;;;;;;5095015;28;20085;-67
2021/04/29 01:46:59;;;;;;;16.87;10.97;;;10.30;67.50;;;;;;5094582;28;20047;-67
2021/04/29 01:49:25;;;;;;;16.53;11.07;;;10.30;67.90;;;;;;5094667;28;20482;-68
2021/04/29 01:51:51;;;;;;;17.63;10.77;;;10.20;68.30;;;;;;5113202;28;20035;-66
2021/04/29 01:54:18;;;;;;;14.23;10.60;;;10.20;68.60;;;;;;5094569;28;20517;-67
2021/04/29 01:56:44;;;;;;;17.63;12.20;;;10.20;68.80;;;;;;5113202;28;20060;-67
2021/04/29 01:59:11;;;;;;;16.10;11.30;;;10.10;69.00;;;;;;5112750;28;20469;-66
2021/04/29 02:01:39;;;;;;;17.33;11.68;;;10.10;69.50;;;;;;5112810;28;20028;-67
2021/04/29 02:04:06;;;;;;;16.60;10.97;;;10.10;69.90;;;;;;5094606;28;20542;-67
2021/04/29 02:06:32;;;;;;;16.43;11.40;;;10.00;70.10;;;;;;5085868;28;20097;-67
2021/04/29 02:08:58;;;;;;;17.67;12.60;;;10.00;70.40;;;;;;5074385;28;20170;-67
2021/04/29 02:11:24;;;;;;;17.13;12.03;;;10.00;70.60;;;;;;5074195;28;20515;-67
2021/04/29 02:13:53;;;;;;;16.27;12.40;;;10.00;70.90;;;;;;5074246;28;20032;-67
2021/04/29 02:16:30;;;;;;;17.73;12.37;;;9.90;71.20;;;;;;5092277;28;20055;-67
2021/04/29 02:18:56;;;;;;;16.13;11.40;;;9.90;71.40;;;;;;5074023;28;20047;-66
2021/04/29 02:21:22;;;;;;;18.53;11.90;;;9.90;71.50;;;;;;5092366;28;20071;-66
2021/04/29 02:23:49;;;;;;;17.40;11.73;;;9.90;71.80;;;;;;5091502;28;20036;-66
2021/04/29 02:26:17;;;;;;;17.97;12.10;;;9.90;71.90;;;;;;5092223;28;20046;-66
2021/04/29 02:28:44;;;;;;;19.17;13.23;;;9.90;72.10;;;;;;5056658;28;20056;-67
2021/04/29 02:31:11;;;;;;;18.03;12.50;;;9.90;72.30;;;;;;5074046;28;20036;-66
2021/04/29 02:33:37;;;;;;;17.83;12.03;;;9.90;72.50;;;;;;5073643;28;20024;-67
2021/04/29 02:36:05;;;;;;;19.40;13.10;;;9.80;72.60;;;;;;5091027;28;20056;-66
2021/04/29 02:38:32;;;;;;;19.17;12.93;;;9.70;72.80;;;;;;5090711;28;20504;-67
2021/04/29 02:40:59;;;;;;;18.27;12.97;;;9.70;73.10;;;;;;5092132;28;20056;-66
2021/04/29 02:43:24;;;;;;;15.03;11.57;;;9.60;73.20;;;;;;5091119;28;20055;-66
2021/04/29 02:45:51;;;;;;;18.50;12.03;;;9.60;73.40;;;;;;5074033;28;20040;-66
2021/04/29 02:48:18;;;;;;;16.37;12.40;;;9.60;73.60;;;;;;5056391;28;20040;-66
2021/04/29 02:50:44;;;;;;;17.70;11.60;;;9.60;73.80;;;;;;5091764;28;20469;-66
2021/04/29 02:53:17;;;;;;;17.07;11.43;;;9.60;73.80;;;;;;5073287;28;20055;-66
2021/04/29 02:55:45;;;;;;;18.47;11.43;;;9.60;73.90;;;;;;5091287;28;20119;-66
2021/04/29 02:58:13;;;;;;;18.17;12.27;;;9.60;73.90;;;;;;5057137;28;20043;-67
2021/04/29 03:00:40;;;;;;;18.07;12.03;;;9.50;74.00;;;;;;5073393;28;20040;-68
2021/04/29 03:03:08;;;;;;;16.17;11.90;;;9.50;73.90;;;;;;5090558;28;20036;-68
2021/04/29 03:05:34;;;;;;;16.17;11.50;;;9.50;74.20;;;;;;5072973;28;20070;-66
2021/04/29 03:07:59;;;;;;;17.60;12.13;;;9.50;74.50;;;;;;5073049;28;20047;-67
2021/04/29 03:10:25;;;;;;;16.47;12.27;;;9.50;74.60;;;;;;5073323;28;20036;-66
2021/04/29 03:12:51;;;;;;;16.93;12.53;;;9.50;74.70;;;;;;5090729;28;20060;-66
2021/04/29 03:15:17;;;;;;;17.43;12.80;;;9.50;74.80;;;;;;5091454;28;20089;-67
2021/04/29 03:17:42;;;;;;;18.30;12.87;;;9.50;74.80;;;;;;5090763;28;20046;-67
2021/04/29 03:20:09;;;;;;;18.30;11.43;;;9.50;74.90;;;;;;5073245;28;20373;-66
2021/04/29 03:22:35;;;;;;;19.17;12.60;;;9.50;75.00;;;;;;5091281;28;20434;-67
2021/04/29 03:25:02;;;;;;;17.03;12.03;;;9.50;75.10;;;;;;5090275;28;20483;-67
2021/04/29 03:27:28;;;;;;;18.47;12.43;;;9.50;75.20;;;;;;5073504;28;20039;-66
2021/04/29 03:29:53;;;;;;;15.83;12.37;;;9.50;75.20;;;;;;5072345;28;20040;-67
2021/04/29 03:32:20;;;;;;;15.47;11.67;;;9.60;75.40;;;;;;5072748;28;20032;-66
2021/04/29 03:34:46;;;;;;;16.53;12.40;;;9.60;75.50;;;;;;5072360;28;20122;-67
2021/04/29 03:37:11;;;;;;;16.57;11.60;;;9.60;75.60;;;;;;5072983;28;20503;-67
2021/04/29 03:39:37;;;;;;;20.20;13.03;;;9.60;75.30;;;;;;5073259;28;20039;-67
2021/04/29 03:42:06;;;;;;;16.77;11.93;;;9.60;75.40;;;;;;5091146;28;20036;-67
2021/04/29 03:44:33;;;;;;;18.20;12.50;;;9.60;75.60;;;;;;5090375;28;20047;-66
2021/04/29 03:46:59;;;;;;;17.20;12.90;;;9.60;75.70;;;;;;5090982;28;20514;-68
2021/04/29 03:49:24;;;;;;;17.77;12.30;;;9.60;75.70;;;;;;5054595;28;20028;-67
2021/04/29 03:51:50;;;;;;;19.57;13.10;;;9.60;75.70;;;;;;5073131;28;20028;-68
2021/04/29 03:54:16;;;;;;;17.10;13.07;;;9.50;75.60;;;;;;5039486;28;20580;-67
2021/04/29 03:56:42;;;;;;;18.73;12.40;;;9.60;75.70;;;;;;5090333;28;20098;-68
2021/04/29 03:59:07;;;;;;;17.63;12.63;;;9.60;76.00;;;;;;5056298;28;20599;-68
2021/04/29 04:01:33;;;;;;;19.50;13.27;;;9.60;76.10;;;;;;5072571;28;20036;-68
2021/04/29 04:03:58;;;;;;;16.07;11.60;;;9.60;75.90;;;;;;5072568;28;20044;-67
2021/04/29 04:06:24;;;;;;;16.17;11.87;;;9.60;76.10;;;;;;5055789;28;20036;-68
2021/04/29 04:08:50;;;;;;;17.83;11.93;;;9.60;76.00;;;;;;5090426;28;20052;-68
2021/04/29 04:11:15;;;;;;;16.73;11.53;;;9.60;76.00;;;;;;5055941;28;20113;-68
2021/04/29 04:13:41;;;;;;;17.90;13.23;;;9.60;76.00;;;;;;5074252;28;20040;-67
2021/04/29 04:16:07;;;;;;;17.83;13.43;;;9.60;76.30;;;;;;5059613;28;20032;-67
2021/04/29 04:18:33;;;;;;;18.33;11.97;;;9.60;76.40;;;;;;5076687;28;20028;-68
2021/04/29 04:20:58;;;;;;;18.50;13.13;;;9.60;76.30;;;;;;5076288;28;20043;-68
2021/04/29 04:23:24;;;;;;;16.40;11.77;;;9.60;76.30;;;;;;5076254;28;20040;-68
2021/04/29 04:25:50;;;;;;;16.00;13.20;;;9.60;76.30;;;;;;5076493;28;20089;-68
2021/04/29 04:28:15;;;;;;;19.17;12.87;;;9.60;76.30;;;;;;5093916;28;20138;-68
2021/04/29 04:30:41;;;;;;;16.17;12.50;;;9.60;76.40;;;;;;5094605;28;20040;-69
2021/04/29 04:33:07;;;;;;;18.00;13.40;;;9.60;76.40;;;;;;5076201;28;20058;-67
2021/04/29 04:35:33;;;;;;;18.10;13.67;;;9.60;76.30;;;;;;5093783;28;20058;-68
2021/04/29 04:37:59;;;;;;;20.27;14.13;;;9.60;76.30;;;;;;5094578;28;20043;-67
2021/04/29 04:40:24;;;;;;;16.77;12.73;;;9.60;76.30;;;;;;5093888;28;20576;-68
2021/04/29 04:42:50;;;;;;;17.57;13.97;;;9.60;76.40;;;;;;5059706;28;20115;-68
2021/04/29 04:45:16;;;;;;;16.97;13.20;;;9.70;76.50;;;;;;5058692;28;20028;-68
2021/04/29 04:47:41;;;;;;;19.97;14.03;;;9.70;76.40;;;;;;5074399;28;20495;-68
2021/04/29 04:50:08;;;;;;;17.63;13.57;;;9.70;76.40;;;;;;5092703;28;20051;-68
2021/04/29 04:52:34;;;;;;;17.87;13.40;;;9.70;76.30;;;;;;5093730;28;20104;-68
2021/04/29 04:55:00;;;;;;;15.73;12.63;;;9.70;76.30;;;;;;5093274;28;20523;-69
2021/04/29 04:57:26;;;;;;;18.87;13.40;;;9.70;76.40;;;;;;5093973;28;20039;-69
2021/04/29 04:59:51;;;;;;;19.37;13.97;;;9.60;76.40;;;;;;5093879;28;20056;-68
2021/04/29 05:02:17;;;;;;;18.67;13.90;;;9.70;76.50;;;;;;5076285;28;20036;-69
2021/04/29 05:04:43;;;;;;;17.70;14.20;;;9.70;76.50;;;;;;5083223;28;20039;-70
2021/04/29 05:07:10;;;;;;;19.67;14.47;;;9.70;76.60;;;;;;5062471;28;20043;-68
2021/04/29 05:09:36;;;;;;;21.20;14.10;;;9.80;76.70;;;;;;5075978;28;20131;-68
2021/04/29 05:12:02;;;;;;;18.10;13.73;;;9.80;76.70;;;;;;5075347;28;20063;-68
2021/04/29 05:14:31;;;;;;;17.87;13.50;;;9.90;76.70;;;;;;5058482;28;20059;-68
2021/04/29 05:16:57;;;;;;;19.63;14.63;;;9.90;76.80;;;;;;5075417;28;20036;-68
2021/04/29 05:19:23;;;;;;;18.80;14.43;;;10.00;76.70;;;;;;5075224;28;20044;-68
2021/04/29 05:21:49;;;;;;;20.73;14.80;;;10.00;76.60;;;;;;5075453;28;20392;-69
2021/04/29 05:24:14;;;;;;;17.33;13.53;;;10.10;76.70;;;;;;5074719;28;20040;-68
2021/04/29 05:26:40;;;;;;;18.63;14.37;;;10.10;76.40;;;;;;5079745;28;20417;-68
2021/04/29 05:29:07;;;;;;;20.77;14.50;;;10.20;76.40;;;;;;5113753;28;20040;-68
2021/04/29 05:31:33;;;;;;;19.17;14.70;;;10.20;76.40;;;;;;5094738;28;20482;-68
2021/04/29 05:33:59;;;;;;;21.23;15.07;;;10.30;76.50;;;;;;5095190;28;20031;-69
2021/04/29 05:36:25;;;;;;;21.43;14.57;;;10.30;76.50;;;;;;5095041;28;20039;-68
2021/04/29 05:38:51;;;;;;;17.83;14.43;;;10.30;76.50;;;;;;5113138;28;20038;-69
2021/04/29 05:41:16;;;;;;;19.57;14.63;;;10.40;76.50;;;;;;5113615;28;20063;-68
2021/04/29 05:43:42;;;;;;;18.60;14.13;;;10.40;76.90;;;;;;5112650;28;20119;-68
2021/04/29 05:46:08;;;;;;;20.57;14.33;;;10.30;76.00;;;;;;5095031;28;20085;-69
2021/04/29 05:48:34;;;;;;;20.40;15.13;;;10.30;76.10;;;;;;5095067;28;20425;-68
2021/04/29 05:51:00;;;;;;;19.80;13.93;;;10.30;76.00;;;;;;5094706;28;20057;-68
2021/04/29 05:53:25;;;;;;;19.88;14.02;;;10.40;76.30;;;;;;5094922;28;20019;-68
2021/04/29 05:55:51;;;;;;;21.27;14.80;;;10.40;76.40;;;;;;5094967;28;20456;-68
2021/04/29 05:58:17;;;;;;;20.33;14.90;;;10.50;76.30;;;;;;5094630;28;20498;-69
2021/04/29 06:00:43;;;;;;;17.77;14.60;;;10.60;76.40;;;;;;5094894;28;20031;-69
2021/04/29 06:03:08;;;;;;;19.70;15.13;;;10.60;76.20;;;;;;5094014;28;20035;-67
2021/04/29 06:05:34;;;;;;;20.48;14.93;;;10.70;76.10;;;;;;5112989;28;20035;-68
2021/04/29 06:08:02;;;;;;;20.48;14.48;;;10.70;76.00;;;;;;5099863;28;20496;-68
2021/04/29 06:10:29;;;;;;;18.80;14.73;;;10.70;75.70;;;;;;5092345;28;20035;-68
2021/04/29 06:12:55;;;;;;;20.85;14.85;;;10.70;76.20;;;;;;5092533;28;20036;-69
2021/04/29 06:15:21;;;;;;;21.88;15.10;;;10.70;75.60;;;;;;5072532;28;20036;-67
2021/04/29 06:17:47;;;;;;;19.50;15.98;;;10.70;75.90;;;;;;5091501;28;20035;-68
2021/04/29 06:20:14;;;;;;;20.83;15.57;;;10.70;76.00;;;;;;5091352;28;20036;-68
2021/04/29 06:22:40;;;;;;;19.40;15.27;;;10.70;76.10;;;;;;5091044;28;20119;-68
2021/04/29 06:25:07;;;;;;;21.30;16.25;;;10.70;76.10;;;;;;5091800;28;20113;-69
2021/04/29 06:27:33;;;;;;;22.50;15.50;;;10.70;76.30;;;;;;5073852;28;20111;-66
2021/04/29 06:29:59;;;;;;;19.88;15.68;;;10.80;76.30;;;;;;5092147;28;20044;-68
2021/04/29 06:32:26;;;;;;;19.95;15.35;;;10.80;76.10;;;;;;5073593;28;20036;-68
2021/04/29 06:34:52;;;;;;;20.67;15.82;;;10.70;76.00;;;;;;5072861;28;20039;-69
2021/04/29 06:37:17;;;;;;;19.50;15.95;;;10.70;75.90;;;;;;5073292;28;20114;-67
2021/04/29 06:39:44;;;;;;;19.40;16.27;;;10.70;76.10;;;;;;5091670;28;20032;-69
2021/04/29 06:42:10;;;;;;;20.77;16.23;;;10.70;76.30;;;;;;5091695;28;20035;-68
2021/04/29 06:44:35;;;;;;;20.25;15.57;;;10.60;76.40;;;;;;5091068;28;20111;-68
2021/04/29 06:47:01;;;;;;;21.23;16.33;;;10.70;76.40;;;;;;5056429;28;20483;-68
2021/04/29 06:49:28;;;;;;;23.48;18.05;;;10.70;76.50;;;;;;5073625;28;20032;-69
2021/04/29 06:51:54;;;;;;;21.80;17.00;;;10.70;76.60;;;;;;5091830;28;20403;-69
2021/04/29 06:54:21;;;;;;;20.00;16.17;;;10.70;76.50;;;;;;5091247;28;20057;-66
2021/04/29 06:56:47;;;;;;;20.45;16.08;;;10.70;76.20;;;;;;5091745;28;20553;-66
2021/04/29 06:59:13;;;;;;;20.42;17.15;;;10.60;76.00;;;;;;5073063;28;20040;-68
2021/04/29 07:01:39;;;;;;;20.97;16.17;;;10.50;76.10;;;;;;5073364;28;20038;-68
2021/04/29 07:04:05;;;;;;;21.63;17.07;;;10.40;76.30;;;;;;5090938;28;20040;-67
2021/04/29 07:06:31;;;;;;;23.40;18.05;;;10.30;76.30;;;;;;5090840;28;20043;-68
2021/04/29 07:09:01;;;;;;;21.30;16.30;;;10.30;76.60;;;;;;5091585;28;20062;-68
2021/04/29 07:11:28;;;;;;;24.63;16.67;;;10.30;76.50;;;;;;5073059;28;20152;-66
2021/04/29 07:13:54;;;;;;;23.70;17.15;;;10.20;76.40;;;;;;5071656;28;20066;-66
2021/04/29 07:16:21;;;;;;;22.73;17.70;;;10.10;76.50;;;;;;5073261;28;20040;-67
2021/04/29 07:18:47;;;;;;;24.10;18.20;;;10.10;76.70;;;;;;5056133;28;20036;-67
2021/04/29 07:21:13;;;;;;;24.40;17.90;;;10.00;76.80;;;;;;5090843;28;20043;-68
2021/04/29 07:23:39;;;;;;;26.17;18.50;;;9.90;76.90;;;;;;5038579;28;20037;-67
2021/04/29 07:26:05;;;;;;;25.07;19.10;;;9.90;77.30;;;;;;5072989;28;20035;-68
2021/04/29 07:28:31;;;;;;;24.10;18.43;;;9.90;77.40;;;;;;5055197;28;20047;-68
2021/04/29 07:30:57;;;;;;;25.57;18.70;;;9.90;77.60;;;;;;5071674;28;20040;-67
2021/04/29 07:33:23;;;;;;;25.70;19.73;;;9.80;77.70;;;;;;5071741;28;20028;-68
2021/04/29 07:35:49;;;;;;;24.60;18.87;;;9.90;78.00;;;;;;5072031;28;20038;-68
2021/04/29 07:38:16;;;;;;;24.07;17.17;;;9.90;78.50;;;;;;5087381;28;20048;-67
2021/04/29 07:40:42;;;;;;;25.93;18.00;;;10.00;78.60;;;;;;5095637;28;20056;-69
2021/04/29 07:43:08;;;;;;;23.33;17.33;;;10.10;78.40;;;;;;5055684;28;20036;-68
2021/04/29 07:45:34;;;;;;;22.23;17.60;;;10.20;78.60;;;;;;5056280;28;20036;-68
2021/04/29 07:48:00;;;;;;;23.57;18.27;;;10.30;78.20;;;;;;5090591;28;20039;-69
2021/04/29 07:50:31;;;;;;;22.03;16.13;;;10.40;78.50;;;;;;5058564;28;20032;-70
2021/04/29 07:52:57;;;;;;;;;;;10.50;79.00;;;;;;5076046;28;20032;-70
2021/04/29 07:55:23;;;;;;;21.55;16.65;;;10.70;79.10;;;;;;5075289;28;19919;-67
2021/04/29 07:57:49;;;;;;;23.17;17.25;;;10.90;78.40;;;;;;5075425;28;20032;-69
2021/04/29 08:00:16;;;;;;;23.45;17.45;;;10.90;77.80;;;;;;5075587;28;20516;-69
2021/04/29 08:02:42;;;;;;;20.02;16.73;;;11.10;78.10;;;;;;5093724;28;20077;-72
2021/04/29 08:05:09;;;;;;;21.55;16.83;;;11.10;77.90;;;;;;5094985;28;20055;-69
2021/04/29 08:07:36;;;;;;;22.30;17.83;;;11.20;77.50;;;;;;5076155;28;20033;-68
2021/04/29 08:10:03;;;;;;;21.85;16.10;;;11.30;76.80;;;;;;5060059;28;20036;-69
2021/04/29 08:12:29;;;;;;;24.08;17.55;;;11.30;76.90;;;;;;5076638;28;20038;-68
2021/04/29 08:14:59;;;;;;;23.15;18.17;;;11.30;77.10;;;;;;5075680;28;20028;-68
2021/04/29 08:17:26;;;;;;;22.52;17.50;;;11.40;76.70;;;;;;5077407;28;20163;-69
2021/04/29 08:19:53;;;;;;;22.10;17.65;;;11.30;76.60;;;;;;5076101;28;20054;-69
2021/04/29 08:22:21;;;;;;;21.00;17.17;;;11.30;76.80;;;;;;5076862;28;20094;-69
2021/04/29 08:24:47;;;;;;;23.58;17.30;;;11.40;76.50;;;;;;5093610;28;20119;-68
2021/04/29 08:27:13;;;;;;;21.98;16.83;;;11.40;76.60;;;;;;5076411;28;20136;-69
2021/04/29 08:29:40;;;;;;;23.65;17.65;;;11.40;76.40;;;;;;5094337;28;20492;-69
2021/04/29 08:32:06;;;;;;;22.92;17.73;;;11.50;76.60;;;;;;5075988;28;20060;-71
2021/04/29 08:34:33;;;;;;;22.38;17.52;;;11.50;76.80;;;;;;5094183;28;20115;-70
2021/04/29 08:36:59;;;;;;;25.10;18.35;;;11.60;76.70;;;;;;5075380;28;20044;-69
2021/04/29 08:39:25;;;;;;;22.30;18.55;;;11.60;76.40;;;;;;5094244;28;20036;-69
2021/04/29 08:41:52;;;;;;;23.33;18.48;;;11.60;76.30;;;;;;5094070;28;20043;-70
2021/04/29 08:44:18;;;;;;;25.33;19.25;;;11.60;76.00;;;;;;5093015;28;20036;-69
2021/04/29 08:46:44;;;;;;;21.60;17.55;;;11.60;76.50;;;;;;5075239;28;20530;-70
2021/04/29 08:49:10;;;;;;;23.05;18.80;;;11.70;76.70;;;;;;5086083;28;20040;-69
2021/04/29 08:51:37;;;;;;;21.08;17.20;;;11.80;76.50;;;;;;5084015;28;20043;-69
2021/04/29 08:54:04;;;;;;;22.02;18.10;;;11.90;76.50;;;;;;5103648;28;20482;-69
2021/04/29 08:56:30;;;;;;;24.52;18.55;;;12.00;76.90;;;;;;5101195;28;20032;-70
2021/04/29 08:58:58;;;;;;;21.90;16.80;;;12.20;77.30;;;;;;5086183;28;20052;-69
2021/04/29 09:01:25;;;;;;;21.73;16.50;;;12.30;76.60;;;;;;5086111;28;20036;-69
2021/04/29 09:03:51;;;;;;;22.92;17.20;;;12.50;77.10;;;;;;5091608;28;20089;-69
2021/04/29 09:06:32;;;;;;;22.27;17.90;;;12.70;77.10;;;;;;5058877;28;20556;-68
2021/04/29 09:08:58;;;;;;;;;;;12.90;76.80;;;;;;5076735;28;20033;-68
2021/04/29 09:11:24;;;;;;;25.73;17.55;;;13.00;76.60;;;;;;5091746;28;19912;-66
2021/04/29 09:14:02;;;;;;;22.67;17.33;;;13.20;75.60;;;;;;5090756;28;20177;-66
2021/04/29 09:16:42;;;;;;;22.23;17.00;;;13.10;74.90;;;;;;5092818;28;20111;-66
2021/04/29 09:19:28;;;;;;;21.30;17.98;;;13.00;75.10;;;;;;5092006;28;20032;-69
2021/04/29 09:21:55;;;;;;;22.27;17.80;;;12.90;75.00;;;;;;5051340;28;20041;-68
2021/04/29 09:24:51;;;;;;;21.77;17.30;;;12.80;75.10;;;;;;5071553;28;20039;-69
2021/04/29 09:27:23;;;;;;;20.55;17.02;;;12.70;74.60;;;;;;5055125;28;20036;-68
2021/04/29 09:29:55;;;;;;;23.20;18.13;;;12.60;74.80;;;;;;5064668;28;20183;-67
2021/04/29 09:32:32;;;;;;;21.13;16.20;;;12.60;75.00;;;;;;5092380;28;20067;-68
2021/04/29 09:35:00;;;;;;;21.27;18.35;;;12.60;75.10;;;;;;5091883;28;20043;-69
2021/04/29 09:37:31;;;;;;;21.95;17.58;;;12.60;75.30;;;;;;5092476;28;20580;-68
2021/04/29 09:39:58;;;;;;;22.33;18.70;;;12.50;75.20;;;;;;5092937;28;20677;-69
2021/04/29 09:42:32;;;;;;;22.02;17.02;;;12.50;75.10;;;;;;5073820;28;20404;-69
2021/04/29 09:44:59;;;;;;;22.20;17.25;;;12.40;75.60;;;;;;5090627;28;20581;-69
2021/04/29 09:47:26;;;;;;;23.73;19.02;;;12.40;75.90;;;;;;5088253;28;20047;-70
2021/04/29 09:49:52;;;;;;;23.17;18.38;;;12.40;76.20;;;;;;5092679;28;20494;-68
2021/04/29 09:52:26;;;;;;;23.27;19.13;;;12.40;76.00;;;;;;5073374;28;20036;-69
2021/04/29 09:54:54;;;;;;;21.52;17.88;;;12.50;76.50;;;;;;5073094;28;20078;-65
2021/04/29 09:57:28;;;;;;;20.23;16.83;;;12.50;76.50;;;;;;5074256;28;20040;-65
2021/04/29 09:59:58;;;;;;;23.13;17.90;;;12.60;77.00;;;;;;5091914;28;20093;-67
2021/04/29 10:02:25;;;;;;;24.55;18.60;;;12.80;76.80;;;;;;5079232;28;20047;-66
2021/04/29 10:04:54;;;;;;;20.90;17.27;;;12.90;75.90;;;;;;5101658;28;20036;-67
2021/04/29 10:07:21;;;;;;;21.42;17.38;;;12.90;76.10;;;;;;5102874;28;20040;-66
2021/04/29 10:09:48;;;;;;;24.30;17.23;;;12.90;76.10;;;;;;5067163;28;20417;-66
2021/04/29 10:12:16;;;;;;;22.63;17.95;;;13.00;76.00;;;;;;5087493;28;20024;-67
2021/04/29 10:14:47;;;;;;;21.42;16.85;;;13.00;76.10;;;;;;5104392;28;20407;-66
2021/04/29 10:17:15;;;;;;;21.42;17.60;;;13.00;75.70;;;;;;5073043;28;20040;-66
2021/04/29 10:19:44;;;;;;;21.50;17.45;;;12.90;75.00;;;;;;5093410;28;20036;-66
2021/04/29 10:22:11;;;;;;;22.20;17.83;;;12.80;74.60;;;;;;5108279;28;20036;-66
2021/04/29 10:24:42;;;;;;;22.48;17.48;;;12.70;74.90;;;;;;5073335;28;20036;-67
2021/04/29 10:27:10;;;;;;;24.13;18.77;;;12.60;75.30;;;;;;5102823;28;20050;-68
2021/04/29 10:29:36;;;;;;;21.88;17.83;;;12.40;74.80;;;;;;5078824;28;20043;-69
2021/04/29 10:32:06;;;;;;;23.98;18.00;;;12.30;75.00;;;;;;5108383;28;20039;-69
2021/04/29 10:34:39;;;;;;;22.77;17.80;;;12.10;75.20;;;;;;5072678;28;20403;-68
2021/04/29 10:37:16;;;;;;;22.42;18.27;;;12.00;75.60;;;;;;5080682;28;20039;-69
2021/04/29 10:40:03;;;;;;;23.90;19.17;;;11.80;76.10;;;;;;5083024;28;20107;-70
2021/04/29 10:42:30;;;;;;;22.65;17.83;;;11.70;76.40;;;;;;5102842;28;20027;-70
2021/04/29 10:45:05;;;;;;;21.80;18.02;;;11.70;76.70;;;;;;5082665;28;20047;-69
2021/04/29 10:47:32;;;;;;;25.17;18.58;;;11.70;76.60;;;;;;5087217;28;20047;-69
2021/04/29 10:50:14;;;;;;;26.38;18.38;;;11.50;76.70;;;;;;5096150;28;20158;-70
2021/04/29 10:52:59;;;;;;;19.67;17.25;;;11.50;76.90;;;;;;5104303;28;20113;-69
2021/04/29 10:55:37;;;;;;;19.92;16.20;;;11.50;77.10;;;;;;5072603;28;20039;-69
2021/04/29 10:58:05;;;;;;;23.15;18.60;;;11.40;77.20;;;;;;5107592;28;20039;-69
2021/04/29 11:00:34;;;;;;;21.67;17.55;;;11.40;77.50;;;;;;5097248;28;20184;-70
2021/04/29 11:03:09;;;;;;;21.98;18.67;;;11.40;77.90;;;;;;5083263;28;20039;-70
2021/04/29 11:05:36;;;;;;;20.80;17.67;;;11.40;77.90;;;;;;5087305;28;20035;-70
2021/04/29 11:08:09;;;;;;;20.50;16.75;;;11.40;77.40;;;;;;5101923;28;20043;-69
2021/04/29 11:10:37;;;;;;;21.15;17.25;;;11.30;77.00;;;;;;5085916;28;20166;-69
2021/04/29 11:13:05;;;;;;;20.98;17.30;;;11.20;77.30;;;;;;5078562;28;20032;-69
2021/04/29 11:15:40;;;;;;;22.15;17.50;;;11.10;77.60;;;;;;5086417;28;20043;-70
2021/04/29 11:18:15;;;;;;;29.02;18.20;;;11.00;78.00;;;;;;5102030;28;20142;-69
2021/04/29 11:20:56;;;;;;;21.67;17.30;;;11.00;78.60;;;;;;5098766;28;20866;-70
2021/04/29 11:23:27;;;;;;;20.98;16.08;;;11.00;79.00;;;;;;5099834;28;20036;-69
2021/04/29 11:26:16;;;;;;;19.25;16.05;;;11.00;79.10;;;;;;5086494;28;20032;-70
2021/04/29 11:28:42;;;;;;;20.65;17.08;;;11.10;79.00;;;;;;5086093;28;20056;-69
2021/04/29 11:31:08;;;;;;;22.40;16.63;;;11.10;79.00;;;;;;5101911;28;20422;-69
2021/04/29 11:33:47;;;;;;;21.63;16.65;;;11.10;79.20;;;;;;5095946;28;20039;-70
2021/04/29 11:36:29;;;;;;;22.08;18.02;;;11.10;79.10;;;;;;5074844;28;20027;-70
2021/04/29 11:38:56;;;;;;;21.40;17.60;;;11.10;79.20;;;;;;5083005;28;20705;-69
2021/04/29 11:41:23;;;;;;;21.75;16.80;;;11.10;79.30;;;;;;5085616;28;20118;-69
2021/04/29 11:43:58;;;;;;;20.45;15.98;;;11.10;79.40;;;;;;5094029;28;20038;-70
2021/04/29 11:46:25;;;;;;;19.65;14.45;;;11.10;79.20;;;;;;5109933;28;20041;-70
2021/04/29 11:48:55;;;;;;;23.48;16.98;;;11.10;79.10;;;;;;5110331;28;20131;-69
2021/04/29 11:51:22;;;;;;;21.25;17.02;;;11.10;79.10;;;;;;5109886;28;20040;-70
2021/04/29 11:53:48;;;;;;;23.02;16.48;;;11.00;79.40;;;;;;5081482;28;20028;-69
2021/04/29 11:56:15;;;;;;;21.30;16.90;;;11.00;79.30;;;;;;5074914;28;20491;-69
2021/04/29 11:58:41;;;;;;;23.75;17.27;;;11.00;79.40;;;;;;5103686;28;20035;-70
2021/04/29 12:01:15;;;;;;;22.80;16.63;;;10.90;79.40;;;;;;5099523;28;20032;-70
2021/04/29 12:03:42;;;;;;;21.60;16.13;;;10.80;79.60;;;;;;5100087;28;20047;-70
2021/04/29 12:06:08;;;;;;;22.67;17.42;;;10.80;79.80;;;;;;5102379;28;20032;-70
2021/04/29 12:08:35;;;;;;;25.90;18.83;;;10.80;79.90;;;;;;5096602;28;20106;-69
2021/04/29 12:11:06;;;;;;;21.40;16.35;;;10.80;80.40;;;;;;5103698;28;20036;-69
2021/04/29 12:13:51;;;;;;;20.55;15.88;;;10.80;80.40;;;;;;5101002;28;20036;-65
2021/04/29 12:16:31;;;;;;;22.13;17.33;;;10.90;80.50;;;;;;5099959;28;20035;-66
2021/04/29 12:18:57;;;;;;;20.90;17.13;;;10.90;80.60;;;;;;5101395;28;20452;-67
2021/04/29 12:21:27;;;;;;;21.83;17.05;;;10.90;80.50;;;;;;5102440;28;20039;-67
2021/04/29 12:24:07;;;;;;;24.92;17.88;;;10.90;80.70;;;;;;5100410;28;20036;-65
2021/04/29 12:26:33;;;;;;;23.67;18.13;;;10.80;80.60;;;;;;5101625;28;20032;-65
2021/04/29 12:29:04;;;;;;;24.63;18.33;;;10.80;80.70;;;;;;5101731;28;20044;-66
2021/04/29 12:31:31;;;;;;;25.02;17.08;;;10.80;80.90;;;;;;5099318;28;20475;-65
2021/04/29 12:34:03;;;;;;;23.80;18.63;;;10.80;81.10;;;;;;5081628;28;20052;-67